KARR/ARR METAR and TAF weather

Enter ICAO airport designator
Station Type Date Time Source
KARR METAR 2019/06/26 21:52 UTC NOAA

KARR 262152Z 19010KT 10SM SCT060 BKN085 31/18 A3002 RMK AO2 SLP161 T03110183


Station Type Date Time Source
KARR Decoded METAR 2019/06/26 21:52 UTC NOAA

CHICAGO AURORA MUNICIPAL, IL, United States (KARR) 41-46N 088-28W 215M
Jun 26, 2019 - 05:52 PM EDT / 2019.06.26 2152 UTC
Wind: from the S (190 degrees) at 12 MPH (10 KT):0
Visibility: 10 mile(s):0
Sky conditions: mostly cloudy
Temperature: 88.0 F (31.1 C)
Dew Point: 64.9 F (18.3 C)
Relative Humidity: 46%
Pressure (altimeter): 30.02 in. Hg (1016 hPa)
ob: KARR 262152Z 19010KT 10SM SCT060 BKN085 31/18 A3002 RMK AO2 SLP161 T03110183
cycle: 22

Station Type Date Time Source
KARR TAF UTC NOAA

Error!

Example: see airport list